createdAt,value
2022-11-04T00:01:47.176Z,7.06
2022-11-04T00:04:17.776Z,7.05
2022-11-04T00:06:45.881Z,7.06
2022-11-04T00:09:17.782Z,7.09
2022-11-04T00:12:04.130Z,7.06
2022-11-04T00:14:32.843Z,7.05
2022-11-04T00:17:19.508Z,7.07
2022-11-04T00:20:07.510Z,6.98
2022-11-04T00:22:54.161Z,6.98
2022-11-04T00:28:31.521Z,6.98
2022-11-04T00:31:19.760Z,6.97
2022-11-04T00:33:48.997Z,6.98
2022-11-04T00:36:16.896Z,7.02
2022-11-04T00:38:44.734Z,7.03
2022-11-04T00:41:28.315Z,7.06
2022-11-04T00:43:57.760Z,7.06
2022-11-04T00:46:25.827Z,7.10
2022-11-04T00:48:53.506Z,7.07
2022-11-04T00:51:21.826Z,7.13
2022-11-04T00:53:49.695Z,7.07
2022-11-04T00:56:17.309Z,6.99
2022-11-04T00:58:44.806Z,7.02
2022-11-04T01:01:18.601Z,7.02
2022-11-04T01:03:49.148Z,7.05
2022-11-04T01:06:18.152Z,7.05
2022-11-04T01:08:45.904Z,7.05
2022-11-04T01:11:14.129Z,7.08
2022-11-04T01:13:41.596Z,7.08
2022-11-04T01:16:11.301Z,7.09
2022-11-04T01:18:40.456Z,7.07
2022-11-04T01:21:09.000Z,7.02
2022-11-04T01:23:36.958Z,7.00
2022-11-04T01:26:08.422Z,7.03
2022-11-04T01:28:36.244Z,7.03
2022-11-04T01:31:08.472Z,7.00
2022-11-04T01:33:37.584Z,7.03
2022-11-04T01:36:06.176Z,7.01
2022-11-04T01:38:34.274Z,7.05
2022-11-04T01:41:02.775Z,7.10
2022-11-04T01:43:49.876Z,7.04
2022-11-04T01:46:32.917Z,7.07
2022-11-04T01:49:23.234Z,7.06
2022-11-04T01:51:54.863Z,7.05
2022-11-04T01:54:22.672Z,6.99
2022-11-04T01:56:50.331Z,6.98
2022-11-04T01:59:33.103Z,6.98
2022-11-04T02:02:00.901Z,7.00
2022-11-04T02:04:30.493Z,6.95
2022-11-04T02:07:01.202Z,6.91
2022-11-04T02:09:31.431Z,6.98
2022-11-04T02:12:18.059Z,6.98
2022-11-04T02:14:48.105Z,6.91
2022-11-04T02:17:15.559Z,6.91
2022-11-04T02:20:21.660Z,6.94
2022-11-04T02:23:04.655Z,6.95
2022-11-04T02:25:38.132Z,6.89
2022-11-04T02:28:20.639Z,6.96
2022-11-04T02:30:55.772Z,6.90
2022-11-04T02:33:52.686Z,6.94
2022-11-04T02:36:37.690Z,6.94
2022-11-04T02:39:22.309Z,6.86
2022-11-04T02:42:02.667Z,6.88
2022-11-04T02:44:38.124Z,6.91
2022-11-04T02:47:10.038Z,6.82
2022-11-04T02:49:40.756Z,6.81
2022-11-04T02:52:34.867Z,6.84
2022-11-04T02:55:18.253Z,6.77
2022-11-04T02:57:49.227Z,6.75
2022-11-04T03:00:20.712Z,6.72
2022-11-04T03:02:53.671Z,6.73
2022-11-04T03:05:27.046Z,6.77
2022-11-04T03:07:58.737Z,6.75
2022-11-04T03:10:34.830Z,6.66
2022-11-04T03:13:20.243Z,6.68
2022-11-04T03:15:55.896Z,6.66
2022-11-04T03:18:23.419Z,6.72
2022-11-04T03:20:52.665Z,6.61
2022-11-04T03:23:20.381Z,6.60
2022-11-04T03:25:53.635Z,6.59
2022-11-04T03:28:34.981Z,6.60
2022-11-04T03:31:06.269Z,6.63
2022-11-04T03:33:36.344Z,6.61
2022-11-04T03:36:04.695Z,6.59
2022-11-04T03:38:32.360Z,6.61
2022-11-04T03:41:02.315Z,6.64
2022-11-04T03:43:31.578Z,6.61
2022-11-04T03:45:59.379Z,6.61
2022-11-04T03:48:27.508Z,6.53
2022-11-04T03:50:55.019Z,6.52
2022-11-04T03:56:08.300Z,6.45
2022-11-04T03:59:13.420Z,6.46
2022-11-04T04:01:51.726Z,6.41
2022-11-04T04:04:30.419Z,6.47
2022-11-04T04:07:16.309Z,6.52
2022-11-04T04:09:46.290Z,6.52
2022-11-04T04:12:26.764Z,6.45
2022-11-04T04:14:58.952Z,6.44
2022-11-04T04:17:50.425Z,6.48
2022-11-04T04:20:24.118Z,6.45
2022-11-04T04:23:01.610Z,6.54
2022-11-04T04:25:50.641Z,6.58
2022-11-04T04:28:20.029Z,6.58
2022-11-04T04:30:47.874Z,6.53
2022-11-04T04:33:18.583Z,6.51
2022-11-04T04:35:53.094Z,6.44
2022-11-04T04:38:46.746Z,6.43
2022-11-04T04:41:35.941Z,6.44
2022-11-04T04:44:28.333Z,6.40
2022-11-04T04:46:58.473Z,6.39
2022-11-04T04:49:35.087Z,6.47
2022-11-04T04:52:06.745Z,6.51
2022-11-04T04:54:34.485Z,6.54
2022-11-04T04:57:02.147Z,6.46
2022-11-04T04:59:29.757Z,6.51
2022-11-04T05:01:57.280Z,6.57
2022-11-04T05:04:24.850Z,6.45
2022-11-04T05:06:52.625Z,6.40
2022-11-04T05:09:21.235Z,6.48
2022-11-04T05:11:48.980Z,6.41
2022-11-04T05:14:16.406Z,6.36
2022-11-04T05:16:44.153Z,6.38
2022-11-04T05:19:11.619Z,6.39
2022-11-04T05:21:39.437Z,6.40
2022-11-04T05:24:07.395Z,6.42
2022-11-04T05:26:34.854Z,6.32
2022-11-04T05:29:02.714Z,6.31
2022-11-04T05:31:30.711Z,6.34
2022-11-04T05:33:59.862Z,6.31
2022-11-04T05:36:27.675Z,6.34
2022-11-04T05:38:55.837Z,6.34
2022-11-04T05:41:26.846Z,6.23
2022-11-04T05:43:58.639Z,6.22
2022-11-04T05:46:27.575Z,6.24
2022-11-04T05:48:55.682Z,6.29
2022-11-04T05:51:26.871Z,6.35
2022-11-04T05:53:54.772Z,6.33
2022-11-04T05:56:22.335Z,6.34
2022-11-04T05:58:50.194Z,6.33
2022-11-04T06:01:26.818Z,6.32
2022-11-04T06:03:55.089Z,6.25
2022-11-04T06:06:25.217Z,6.26
2022-11-04T06:08:55.832Z,6.27
2022-11-04T06:11:25.219Z,6.22
2022-11-04T06:13:54.388Z,6.26
2022-11-04T06:16:22.350Z,6.16
2022-11-04T06:18:50.449Z,6.10
2022-11-04T06:21:19.100Z,6.13
2022-11-04T06:23:46.827Z,6.12
2022-11-04T06:26:15.466Z,6.17
2022-11-04T06:28:43.136Z,6.16
2022-11-04T06:31:12.009Z,6.17
2022-11-04T06:33:40.174Z,6.19
2022-11-04T06:36:10.607Z,6.16
2022-11-04T06:38:38.345Z,6.12
2022-11-04T06:41:07.590Z,6.19
2022-11-04T06:43:35.124Z,6.23
2022-11-04T06:46:04.036Z,6.25
2022-11-04T06:48:31.921Z,6.19
2022-11-04T06:51:00.764Z,6.21
2022-11-04T06:53:29.971Z,6.25
2022-11-04T06:56:04.186Z,6.29
2022-11-04T06:58:31.960Z,6.34
2022-11-04T07:01:00.028Z,6.39
2022-11-04T07:03:27.918Z,6.44
2022-11-04T07:05:57.176Z,6.44
2022-11-04T07:08:25.129Z,6.33
2022-11-04T07:10:55.487Z,6.36
2022-11-04T07:13:23.013Z,6.42
2022-11-04T07:15:50.454Z,6.43
2022-11-04T07:18:17.968Z,6.42
2022-11-04T07:20:45.654Z,6.34
2022-11-04T07:23:13.146Z,6.34
2022-11-04T07:25:40.617Z,6.26
2022-11-04T07:28:08.511Z,6.23
2022-11-04T07:30:36.659Z,6.28
2022-11-04T07:33:04.394Z,6.30
2022-11-04T07:35:31.887Z,6.28
2022-11-04T07:37:59.663Z,6.40
2022-11-04T07:40:27.510Z,6.32
2022-11-04T07:42:55.282Z,6.32
2022-11-04T07:45:22.900Z,6.31
2022-11-04T07:47:50.747Z,6.30
2022-11-04T07:50:18.438Z,6.36
2022-11-04T07:52:46.302Z,6.38
2022-11-04T07:55:18.519Z,6.39
2022-11-04T07:57:47.485Z,6.38
2022-11-04T08:00:16.571Z,6.41
2022-11-04T08:02:46.756Z,6.34
2022-11-04T08:05:14.806Z,6.27
2022-11-04T08:07:42.633Z,6.26
2022-11-04T08:10:10.414Z,6.22
2022-11-04T08:12:38.361Z,6.27
2022-11-04T08:15:06.544Z,6.22
2022-11-04T08:17:33.980Z,6.26
2022-11-04T08:20:01.628Z,6.28
2022-11-04T08:22:33.021Z,6.29
2022-11-04T08:25:00.811Z,6.39
2022-11-04T08:27:28.360Z,6.28
2022-11-04T08:29:55.912Z,6.32
2022-11-04T08:32:23.869Z,6.33
2022-11-04T08:34:51.934Z,6.35
2022-11-04T08:37:19.621Z,6.46
2022-11-04T08:39:47.482Z,6.46
2022-11-04T08:42:15.357Z,6.41
2022-11-04T08:44:42.992Z,6.46
2022-11-04T08:47:10.740Z,6.52
2022-11-04T08:49:39.874Z,6.52
2022-11-04T08:52:07.814Z,6.48
2022-11-04T08:54:36.092Z,6.55
2022-11-04T08:57:03.977Z,6.45
2022-11-04T08:59:31.776Z,6.48
2022-11-04T09:01:59.266Z,6.57
2022-11-04T09:04:27.148Z,6.51
2022-11-04T09:06:56.404Z,6.59
2022-11-04T09:09:23.931Z,6.63
2022-11-04T09:11:51.333Z,6.50
2022-11-04T09:14:19.176Z,6.45
2022-11-04T09:16:46.687Z,6.56
2022-11-04T09:19:14.338Z,6.54
2022-11-04T09:21:42.195Z,6.56
2022-11-04T09:24:11.630Z,6.57
2022-11-04T09:26:39.871Z,6.53
2022-11-04T09:29:09.820Z,6.59
2022-11-04T09:31:37.848Z,6.53
2022-11-04T09:34:05.391Z,6.52
2022-11-04T09:36:32.902Z,6.55
2022-11-04T09:39:00.616Z,6.56
2022-11-04T09:41:46.146Z,6.49
2022-11-04T09:44:59.760Z,6.42
2022-11-04T09:47:26.335Z,6.49
2022-11-04T09:49:57.723Z,6.51
2022-11-04T09:52:35.025Z,6.56
2022-11-04T09:55:11.689Z,6.61
2022-11-04T09:57:39.581Z,6.70
2022-11-04T10:00:14.564Z,6.65
2022-11-04T10:03:12.707Z,6.54
2022-11-04T10:05:53.591Z,6.41
2022-11-04T10:08:37.766Z,6.47
2022-11-04T10:11:11.594Z,6.59
2022-11-04T10:13:57.928Z,6.54
2022-11-04T10:17:00.631Z,6.56
2022-11-04T10:19:31.652Z,6.46
2022-11-04T10:22:18.154Z,6.46
2022-11-04T10:25:22.234Z,6.55
2022-11-04T10:27:51.750Z,6.50
2022-11-04T10:30:24.430Z,6.38
2022-11-04T10:32:57.262Z,6.40
2022-11-04T10:35:38.528Z,6.44
2022-11-04T10:38:19.935Z,6.55
2022-11-04T10:40:51.384Z,6.59
2022-11-04T10:43:28.698Z,6.63
2022-11-04T10:46:29.905Z,6.65
2022-11-04T10:49:15.986Z,6.50
2022-11-04T10:51:44.960Z,6.52
2022-11-04T10:54:12.826Z,6.54
2022-11-04T10:56:40.609Z,6.54
2022-11-04T10:59:26.510Z,6.53
2022-11-04T11:01:57.534Z,6.59
2022-11-04T11:04:35.630Z,6.62
2022-11-04T11:07:06.262Z,6.45
2022-11-04T11:09:37.171Z,6.37
2022-11-04T11:12:44.267Z,6.42
2022-11-04T11:15:26.293Z,6.45
2022-11-04T11:18:01.385Z,6.52
2022-11-04T11:20:29.066Z,6.36
2022-11-04T11:23:01.906Z,6.31
2022-11-04T11:25:34.358Z,6.35
2022-11-04T11:28:09.584Z,6.46
2022-11-04T11:30:47.093Z,6.52
2022-11-04T11:33:23.977Z,6.54
2022-11-04T11:35:55.197Z,6.43
2022-11-04T11:38:28.761Z,6.37
2022-11-04T11:41:29.251Z,6.28
2022-11-04T11:44:00.822Z,6.35
2022-11-04T11:46:38.113Z,6.30
2022-11-04T11:49:06.022Z,6.27
2022-11-04T11:51:36.935Z,6.33
2022-11-04T11:54:23.763Z,6.38
2022-11-04T11:57:13.347Z,6.28
2022-11-04T12:02:50.241Z,6.35
2022-11-04T12:11:56.754Z,6.23
2022-11-04T12:14:42.537Z,6.35
2022-11-04T12:17:55.060Z,6.32
2022-11-04T12:21:13.560Z,6.33
2022-11-04T12:23:55.021Z,6.41
2022-11-04T12:26:28.311Z,6.45
2022-11-04T12:29:27.526Z,6.31
2022-11-04T12:32:19.260Z,6.36
2022-11-04T12:35:05.398Z,6.37
2022-11-04T12:37:59.672Z,6.25
2022-11-04T12:40:32.802Z,6.26
2022-11-04T12:43:32.827Z,6.19
2022-11-04T12:46:31.606Z,6.21
2022-11-04T12:49:07.337Z,6.16
2022-11-04T12:51:47.245Z,6.18
2022-11-04T12:54:36.844Z,6.15
2022-11-04T12:57:28.355Z,6.29
2022-11-04T13:00:10.263Z,6.21
2022-11-04T13:02:49.495Z,6.14
2022-11-04T13:05:30.869Z,6.19
2022-11-04T13:08:19.798Z,6.29
2022-11-04T13:10:59.432Z,6.26
2022-11-04T13:13:34.443Z,6.21
2022-11-04T13:16:11.772Z,6.13
2022-11-04T13:18:41.481Z,6.14
2022-11-04T13:21:18.609Z,6.09
2022-11-04T13:23:52.461Z,6.04
2022-11-04T13:26:22.499Z,6.12
2022-11-04T13:29:14.720Z,6.15
2022-11-04T13:32:08.647Z,6.09
2022-11-04T13:34:48.525Z,6.08
2022-11-04T13:37:49.444Z,6.16
2022-11-04T13:40:24.910Z,6.09
2022-11-04T13:43:39.230Z,5.98
2022-11-04T13:46:23.954Z,6.03
2022-11-04T13:48:58.093Z,6.03
2022-11-04T13:51:38.006Z,5.98
2022-11-04T13:54:07.802Z,6.03
2022-11-04T13:56:40.800Z,5.93
2022-11-04T13:59:29.315Z,5.91
2022-11-04T14:02:12.615Z,5.82
2022-11-04T14:04:44.187Z,5.88
2022-11-04T14:07:15.936Z,5.87
2022-11-04T14:09:43.434Z,5.81
2022-11-04T14:12:10.878Z,5.66
2022-11-04T14:14:40.204Z,5.76
2022-11-04T14:17:35.400Z,5.66
2022-11-04T14:20:06.686Z,5.51
2022-11-04T14:22:34.677Z,5.62
2022-11-04T14:25:19.405Z,5.65
2022-11-04T14:27:49.435Z,5.55
2022-11-04T14:30:36.923Z,5.55
2022-11-04T14:33:08.997Z,5.52
2022-11-04T14:35:37.141Z,5.39
2022-11-04T14:38:24.621Z,5.49
2022-11-04T14:41:11.722Z,5.50
2022-11-04T14:43:43.434Z,5.29
2022-11-04T14:46:17.496Z,5.47
2022-11-04T14:48:52.310Z,5.50
2022-11-04T14:51:40.125Z,5.43
2022-11-04T14:54:22.726Z,5.38
2022-11-04T14:56:50.221Z,5.29
2022-11-04T14:59:27.458Z,5.17
2022-11-04T15:01:55.968Z,5.09
2022-11-04T15:04:29.585Z,5.00
2022-11-04T15:07:00.488Z,4.93
2022-11-04T15:09:37.697Z,4.91
2022-11-04T15:12:36.422Z,4.97
2022-11-04T15:15:24.047Z,4.89
2022-11-04T15:17:51.913Z,4.79
2022-11-04T15:20:25.190Z,4.80
2022-11-04T15:22:55.663Z,4.84
2022-11-04T15:25:23.702Z,4.88
2022-11-04T15:27:53.199Z,4.79
2022-11-04T15:30:28.525Z,4.78
2022-11-04T15:33:00.096Z,4.73
2022-11-04T15:35:33.556Z,4.75
2022-11-04T15:38:03.822Z,4.82
2022-11-04T15:40:35.369Z,4.90
2022-11-04T15:43:04.791Z,4.90
2022-11-04T15:45:51.348Z,4.97
2022-11-04T15:48:22.487Z,4.90
2022-11-04T15:51:10.738Z,4.98
2022-11-04T15:53:49.566Z,4.92
2022-11-04T15:56:19.109Z,4.86
2022-11-04T15:58:47.727Z,4.73
2022-11-04T16:01:18.330Z,4.75
2022-11-04T16:04:00.579Z,4.69
2022-11-04T16:06:37.473Z,4.72
2022-11-04T16:09:28.865Z,4.53
2022-11-04T16:12:08.364Z,4.56
2022-11-04T16:14:36.133Z,4.60
2022-11-04T16:17:04.320Z,4.64
2022-11-04T16:19:32.434Z,4.62
2022-11-04T16:22:11.696Z,4.50
2022-11-04T16:24:41.707Z,4.48
2022-11-04T16:27:11.433Z,4.59
2022-11-04T16:29:42.640Z,4.41
2022-11-04T16:32:31.970Z,4.49
2022-11-04T16:35:03.047Z,4.46
2022-11-04T16:37:32.698Z,4.44
2022-11-04T16:40:00.632Z,4.55
2022-11-04T16:42:28.399Z,4.33
2022-11-04T16:45:01.810Z,4.32
2022-11-04T16:47:30.864Z,4.34
2022-11-04T16:50:01.126Z,4.25
2022-11-04T16:52:30.749Z,4.30
2022-11-04T16:54:58.614Z,4.36
2022-11-04T16:57:26.862Z,4.41
2022-11-04T16:59:55.924Z,4.50
2022-11-04T17:02:37.732Z,4.43
2022-11-04T17:05:05.898Z,4.37
2022-11-04T17:07:52.074Z,4.50
2022-11-04T17:10:25.579Z,4.43
2022-11-04T17:12:53.193Z,4.42
2022-11-04T17:15:21.020Z,4.38
2022-11-04T17:17:48.834Z,4.42
2022-11-04T17:20:18.299Z,4.47
2022-11-04T17:22:47.383Z,4.38
2022-11-04T17:25:29.038Z,4.35
2022-11-04T17:27:56.896Z,4.28
2022-11-04T17:30:25.831Z,4.38
2022-11-04T17:32:53.929Z,4.39
2022-11-04T17:35:22.373Z,4.46
2022-11-04T17:37:54.475Z,4.48
2022-11-04T17:40:24.119Z,4.33
2022-11-04T17:43:12.523Z,4.37
2022-11-04T17:45:42.588Z,4.33
2022-11-04T17:48:11.403Z,4.35
2022-11-04T17:50:40.066Z,4.30
2022-11-04T17:53:07.956Z,4.29
2022-11-04T17:55:40.558Z,4.26
2022-11-04T17:58:08.770Z,4.24
2022-11-04T18:00:36.831Z,4.25
2022-11-04T18:03:06.804Z,4.33
2022-11-04T18:05:35.653Z,4.31
2022-11-04T18:08:03.908Z,4.20
2022-11-04T18:10:31.612Z,4.18
2022-11-04T18:12:59.359Z,4.36
2022-11-04T18:15:27.135Z,4.32
2022-11-04T18:17:55.026Z,4.25
2022-11-04T18:20:24.138Z,4.12
2022-11-04T18:22:52.062Z,4.13
2022-11-04T18:25:19.816Z,4.12
2022-11-04T18:27:49.026Z,4.20
2022-11-04T18:30:16.596Z,4.12
2022-11-04T18:32:44.318Z,4.20
2022-11-04T18:35:12.140Z,4.15
2022-11-04T18:37:46.840Z,4.19
2022-11-04T18:40:16.323Z,4.09
2022-11-04T18:42:44.822Z,4.15
2022-11-04T18:45:12.656Z,4.15
2022-11-04T18:47:44.660Z,4.15
2022-11-04T18:50:12.131Z,4.08
2022-11-04T18:52:40.448Z,4.07
2022-11-04T18:55:09.083Z,4.12
2022-11-04T18:57:36.803Z,4.07
2022-11-04T19:00:06.087Z,3.99
2022-11-04T19:02:33.862Z,3.96
2022-11-04T19:05:02.200Z,3.97
2022-11-04T19:07:31.073Z,4.06
2022-11-04T19:09:58.810Z,4.01
2022-11-04T19:12:44.808Z,4.05
2022-11-04T19:15:12.746Z,4.06
2022-11-04T19:17:40.425Z,4.07
2022-11-04T19:20:12.702Z,4.09
2022-11-04T19:22:40.981Z,4.11
2022-11-04T19:25:10.786Z,3.93
2022-11-04T19:27:38.690Z,4.03
2022-11-04T19:30:07.147Z,4.10
2022-11-04T19:32:35.177Z,4.11
2022-11-04T19:35:03.485Z,4.20
2022-11-04T19:37:33.138Z,4.21
2022-11-04T19:40:04.954Z,4.14
2022-11-04T19:42:51.945Z,4.03
2022-11-04T19:45:19.664Z,4.11
2022-11-04T19:47:47.602Z,4.07
2022-11-04T19:50:15.941Z,4.18
2022-11-04T19:52:47.191Z,4.07
2022-11-04T19:55:15.507Z,4.11
2022-11-04T19:57:43.116Z,4.14
2022-11-04T20:00:12.066Z,4.12
2022-11-04T20:02:40.126Z,4.18
2022-11-04T20:05:08.239Z,4.20
2022-11-04T20:07:36.372Z,4.21
2022-11-04T20:10:04.641Z,4.26
2022-11-04T20:12:53.690Z,4.17
2022-11-04T20:15:22.099Z,4.30
2022-11-04T20:17:50.095Z,4.28
2022-11-04T20:20:18.143Z,4.26
2022-11-04T20:22:46.078Z,4.26
2022-11-04T20:25:13.476Z,4.16
2022-11-04T20:27:41.430Z,4.14
2022-11-04T20:30:09.578Z,4.24
2022-11-04T20:32:37.391Z,4.22
2022-11-04T20:35:05.524Z,4.21
2022-11-04T20:37:33.409Z,4.26
2022-11-04T20:40:01.833Z,4.25
2022-11-04T20:42:29.859Z,4.27
2022-11-04T20:44:57.917Z,4.25
2022-11-04T20:47:25.885Z,4.17
2022-11-04T20:49:53.950Z,4.11
2022-11-04T20:52:22.287Z,4.14
2022-11-04T20:54:50.104Z,4.07
2022-11-04T20:57:17.674Z,4.08
2022-11-04T20:59:45.715Z,4.10
2022-11-04T21:02:13.655Z,4.09
2022-11-04T21:04:41.690Z,4.11
2022-11-04T21:07:09.702Z,4.00
2022-11-04T21:09:37.570Z,4.10
2022-11-04T21:12:05.920Z,4.13
2022-11-04T21:14:35.259Z,4.06
2022-11-04T21:17:04.659Z,4.01
2022-11-04T21:19:32.537Z,4.01
2022-11-04T21:22:00.328Z,4.04
2022-11-04T21:24:28.093Z,4.06
2022-11-04T21:26:55.849Z,4.12
2022-11-04T21:29:23.384Z,4.16
2022-11-04T21:31:51.004Z,4.15
2022-11-04T21:34:19.127Z,4.12
2022-11-04T21:36:50.602Z,4.15
2022-11-04T21:39:18.364Z,4.09
2022-11-04T21:41:45.843Z,4.17
2022-11-04T21:44:14.312Z,4.19
2022-11-04T21:46:42.556Z,4.19
2022-11-04T21:49:12.288Z,4.17
2022-11-04T21:51:40.416Z,4.19
2022-11-04T21:54:08.676Z,4.22
2022-11-04T21:56:36.273Z,4.19
2022-11-04T21:59:04.566Z,4.12
2022-11-04T22:01:32.909Z,4.07
2022-11-04T22:04:02.037Z,4.13
2022-11-04T22:06:34.637Z,4.14
2022-11-04T22:09:05.636Z,4.07
2022-11-04T22:11:36.479Z,4.03
2022-11-04T22:14:06.394Z,4.09
2022-11-04T22:16:36.176Z,4.09
2022-11-04T22:19:05.659Z,4.13
2022-11-04T22:21:33.919Z,4.07
2022-11-04T22:24:01.971Z,4.06
2022-11-04T22:26:32.555Z,4.08
2022-11-04T22:29:00.684Z,4.07
2022-11-04T22:31:32.478Z,4.07
2022-11-04T22:34:01.821Z,4.10
2022-11-04T22:36:29.982Z,4.02
2022-11-04T22:38:58.821Z,4.00
2022-11-04T22:41:31.829Z,3.98
2022-11-04T22:43:59.779Z,4.00
2022-11-04T22:46:29.553Z,4.08
2022-11-04T22:48:57.294Z,4.00
2022-11-04T22:51:25.484Z,3.94
2022-11-04T22:53:57.739Z,3.96
2022-11-04T22:56:28.010Z,4.05
2022-11-04T22:58:55.778Z,3.98
2022-11-04T23:01:23.974Z,3.97
2022-11-04T23:03:54.580Z,4.08
2022-11-04T23:06:21.984Z,4.10
2022-11-04T23:08:50.291Z,4.14
2022-11-04T23:11:42.006Z,4.06
2022-11-04T23:14:31.830Z,4.00
2022-11-04T23:17:18.030Z,4.00
2022-11-04T23:19:45.816Z,3.99
2022-11-04T23:22:32.205Z,3.93
2022-11-04T23:25:11.588Z,3.94
2022-11-04T23:28:02.896Z,3.91
2022-11-04T23:30:39.426Z,3.97
2022-11-04T23:33:11.213Z,4.02
2022-11-04T23:36:04.113Z,4.03
2022-11-04T23:38:32.708Z,3.98
2022-11-04T23:41:22.293Z,3.91
2022-11-04T23:43:49.746Z,4.02
2022-11-04T23:46:43.151Z,3.99
2022-11-04T23:49:30.365Z,4.05
2022-11-04T23:52:16.918Z,4.01
2022-11-04T23:55:02.844Z,3.96
2022-11-04T23:57:49.145Z,3.98
